Jefferson City, MO

3:21 PM CST on December 07, 2016 (GMT -0600)
E McCarty & Robinson Rd. | | Change Station

Elev 751 ft 38.55 °N, 92.12 °W | Updated 43 seconds ago

Overcast
Overcast
32.4 °F
Feels Like 25 °F
N
9.0
Wind Variable Wind from NNE

Today
High -- | Low -- °F
--% Chance of Precip.
Yesterday
High -- | Low -- °F
Precip. -- in
Pressure 30.26 in
Visibility 10.0 miles
Clouds Overcast 4600 ft
Windchill 25 °F
Dew Point 21 °F
Humidity 63%
Rainfall 0.00 in
Snow Depth Not available.
7:13 AM 4:47 PM
First Quarter, 56% visible
METAR KJEF 072053Z 31007KT 10SM OVC046 01/M07 A3027 RMK AO2 SLP246 60000 T00061067 53001
Pressure 30.26 in
Visibility 10.0 miles
Clouds Overcast 4600 ft
Windchill 25 °F
Dew Point 21 °F
Humidity 63%
Rainfall 0.00 in
Snow Depth Not available.
7:13 AM 4:47 PM
First Quarter, 56% visible
METAR KJEF 072053Z 31007KT 10SM OVC046 01/M07 A3027 RMK AO2 SLP246 60000 T00061067 53001

10-Day Weather Forecast

Almanac

Astronomy

Dec. 07, 2016 Rise Set
Actual Time
Civil Twilight
Nautical Twilight
Astronomical Twilight
Moon
Length of Visible Light
Length of Day
Tomorrow will be .
, % of the Moon is Illuminated

Today's Extremes

State Highs State Lows

Community

WunderPhotos

Upload Photos

1,956,181 photos uploaded!

WunderBlog® & News

Nearby

Air Quality

  Air Quality AQ Index Pollutant
Not available.

Snow Depth

Station Depth Elevation

Earthquake Activity

City Distance Mag. Time & Date
Minimum magnitude displayed is 2.5.

Coastal Water Temperatures

Place Temperature

Stations

Nearby Weather Stations

Station Location Temp. Windchill Dew Point Humidity Wind Precip. Elev Updated Type
                   

Watches & Warnings

There are currently no watches in effect.